Terminal Aerodrome Forecast
Issued by NWS

Home | Current Version | Previous Version | Text Only | Print | Product List | Glossary Off
Versions: 1 2 3 4 5 6 7 8 9 10 11 12 13

000
FTUS43 KFGF 011734
TAFBJI
TAF
KBJI 011734Z 0118/0218 25011KT P6SM FEW050
     FM020100 VRB03KT P6SM SCT250
     FM020900 VRB06KT P6SM VCTS BKN070CB
     FM021300 33009KT P6SM BKN110
     FM021700 32013G20KT P6SM FEW040=

USA.gov is the U.S. government's official web portal to all federal, state and local government web resources and services.